createdAt,value
2019-04-10T00:00:57.213Z,101440.95
2019-04-10T00:03:33.690Z,101442.89
2019-04-10T00:06:04.581Z,101437.88
2019-04-10T00:08:36.957Z,101441.42
2019-04-10T00:11:10.123Z,101440.95
2019-04-10T00:13:42.974Z,101438.52
2019-04-10T00:16:18.040Z,101432.93
2019-04-10T00:18:50.596Z,101440.45
2019-04-10T00:21:23.035Z,101443.61
2019-04-10T00:23:55.571Z,101445.61
2019-04-10T00:26:31.787Z,101458.74
2019-04-10T00:29:06.325Z,101452.90
2019-04-10T00:31:38.698Z,101458.72
2019-04-10T00:34:11.571Z,101456.77
2019-04-10T00:36:43.965Z,101455.53
2019-04-10T00:39:16.254Z,101448.34
2019-04-10T00:41:48.730Z,101451.66
2019-04-10T00:44:21.622Z,101454.15
2019-04-10T00:46:54.825Z,101451.79
2019-04-10T00:49:27.287Z,101449.34
2019-04-10T00:51:59.653Z,101451.98
2019-04-10T00:54:33.020Z,101452.62
2019-04-10T00:57:05.391Z,101458.89
2019-04-10T00:59:37.617Z,101455.83
2019-04-10T01:02:10.209Z,101459.34
2019-04-10T01:04:42.596Z,101453.27
2019-04-10T01:07:14.884Z,101454.80
2019-04-10T01:09:47.923Z,101463.34
2019-04-10T01:12:20.162Z,101452.82
2019-04-10T01:14:52.453Z,101467.28
2019-04-10T01:17:24.693Z,101453.34
2019-04-10T01:19:56.894Z,101458.45
2019-04-10T01:22:29.161Z,101459.86
2019-04-10T01:25:02.159Z,101458.90
2019-04-10T01:27:36.146Z,101457.50
2019-04-10T01:30:08.742Z,101455.47
2019-04-10T01:32:41.866Z,101454.97
2019-04-10T01:35:14.177Z,101455.58
2019-04-10T01:37:53.481Z,101463.17
2019-04-10T01:40:21.697Z,101461.20
2019-04-10T01:43:08.278Z,101462.64
2019-04-10T01:45:27.949Z,101467.14
2019-04-10T01:48:00.226Z,101466.56
2019-04-10T01:50:32.594Z,101466.28
2019-04-10T01:53:06.174Z,101462.73
2019-04-10T01:55:38.864Z,101467.55
2019-04-10T01:58:11.222Z,101465.89
2019-04-10T02:00:43.778Z,101467.80
2019-04-10T02:03:16.229Z,101474.08
2019-04-10T02:05:49.180Z,101471.31
2019-04-10T02:08:21.586Z,101471.34
2019-04-10T02:10:53.822Z,101478.48
2019-04-10T02:13:26.026Z,101467.08
2019-04-10T02:15:58.604Z,101472.84
2019-04-10T02:18:30.912Z,101471.77
2019-04-10T02:21:03.358Z,101475.06
2019-04-10T02:23:36.534Z,101481.66
2019-04-10T02:26:09.453Z,101480.65
2019-04-10T02:28:43.031Z,101478.98
2019-04-10T02:31:16.101Z,101476.22
2019-04-10T02:33:49.677Z,101483.85
2019-04-10T02:36:23.572Z,101482.77
2019-04-10T02:39:08.511Z,101484.37
2019-04-10T02:41:30.021Z,101480.79
2019-04-10T02:44:02.915Z,101482.67
2019-04-10T02:46:36.945Z,101480.30
2019-04-10T02:49:09.608Z,101489.26
2019-04-10T02:51:43.245Z,101490.36
2019-04-10T02:54:17.438Z,101487.98
2019-04-10T02:56:49.732Z,101488.66
2019-04-10T02:59:23.407Z,101490.97
2019-04-10T03:01:56.257Z,101486.59
2019-04-10T03:04:31.109Z,101491.45
2019-04-10T03:07:04.285Z,101493.05
2019-04-10T03:09:52.796Z,101492.94
2019-04-10T03:12:12.580Z,101499.31
2019-04-10T03:14:47.325Z,101498.73
2019-04-10T03:17:19.699Z,101489.90
2019-04-10T03:19:52.178Z,101501.52
2019-04-10T03:22:24.951Z,101492.95
2019-04-10T03:25:01.078Z,101493.16
2019-04-10T03:27:34.347Z,101500.20
2019-04-10T03:30:07.569Z,101495.74
2019-04-10T03:32:44.445Z,101493.95
2019-04-10T03:35:14.920Z,101497.42
2019-04-10T03:37:47.138Z,101506.06
2019-04-10T03:40:19.611Z,101503.56
2019-04-10T03:42:52.959Z,101496.91
2019-04-10T03:45:25.392Z,101497.61
2019-04-10T03:47:58.067Z,101505.75
2019-04-10T03:50:30.388Z,101496.52
2019-04-10T03:53:02.598Z,101502.46
2019-04-10T03:55:35.108Z,101507.11
2019-04-10T03:58:07.374Z,101502.77
2019-04-10T04:00:40.428Z,101517.42
2019-04-10T04:03:12.832Z,101514.25
2019-04-10T04:05:45.102Z,101510.89
2019-04-10T04:08:17.461Z,101517.53
2019-04-10T04:10:51.120Z,101518.43
2019-04-10T04:13:23.715Z,101519.91
2019-04-10T04:15:55.995Z,101528.30
2019-04-10T04:18:28.950Z,101533.85
2019-04-10T04:21:01.556Z,101530.61
2019-04-10T04:23:34.086Z,101533.38
2019-04-10T04:26:07.235Z,101535.25
2019-04-10T04:28:39.781Z,101539.81
2019-04-10T04:31:12.954Z,101538.09
2019-04-10T04:33:45.272Z,101545.23
2019-04-10T04:36:18.606Z,101546.44
2019-04-10T04:38:52.043Z,101544.53
2019-04-10T04:41:25.315Z,101551.87
2019-04-10T04:43:58.064Z,101557.21
2019-04-10T04:46:30.332Z,101559.37
2019-04-10T04:49:02.569Z,101564.02
2019-04-10T04:51:34.800Z,101565.25
2019-04-10T04:54:07.011Z,101572.41
2019-04-10T04:56:40.025Z,101567.91
2019-04-10T04:59:12.374Z,101568.30
2019-04-10T05:01:44.833Z,101571.06
2019-04-10T05:04:17.323Z,101572.14
2019-04-10T05:06:52.153Z,101571.18
2019-04-10T05:09:31.023Z,101573.88
2019-04-10T05:11:58.653Z,101581.91
2019-04-10T05:14:31.842Z,101579.26
2019-04-10T05:17:04.054Z,101582.06
2019-04-10T05:19:36.458Z,101588.44
2019-04-10T05:22:08.713Z,101584.86
2019-04-10T05:24:40.971Z,101594.59
2019-04-10T05:27:14.122Z,101593.03
2019-04-10T05:29:47.158Z,101602.53
2019-04-10T05:32:19.626Z,101608.20
2019-04-10T05:34:52.456Z,101618.52
2019-04-10T05:37:24.877Z,101618.01
2019-04-10T05:39:57.829Z,101612.46
2019-04-10T05:42:31.391Z,101621.02
2019-04-10T05:45:03.682Z,101618.31
2019-04-10T05:47:38.690Z,101628.46
2019-04-10T05:50:12.921Z,101633.84
2019-04-10T05:52:45.270Z,101628.80
2019-04-10T05:55:18.028Z,101634.47
2019-04-10T05:57:51.120Z,101637.84
2019-04-10T06:00:23.428Z,101638.16
2019-04-10T06:02:58.391Z,101640.04
2019-04-10T06:05:31.984Z,101645.79
2019-04-10T06:08:05.741Z,101651.19
2019-04-10T06:10:39.966Z,101657.93
2019-04-10T06:13:12.991Z,101649.84
2019-04-10T06:15:45.458Z,101647.25
2019-04-10T06:18:18.739Z,101647.05
2019-04-10T06:20:51.044Z,101652.02
2019-04-10T06:23:23.456Z,101647.64
2019-04-10T06:25:56.323Z,101661.57
2019-04-10T06:28:30.608Z,101659.47
2019-04-10T06:31:02.569Z,101658.56
2019-04-10T06:33:35.994Z,101664.35
2019-04-10T06:36:09.195Z,101652.22
2019-04-10T06:38:41.658Z,101655.59
2019-04-10T06:41:17.347Z,101655.89
2019-04-10T06:43:49.637Z,101651.61
2019-04-10T06:46:24.343Z,101659.56
2019-04-10T06:48:56.624Z,101657.48
2019-04-10T06:51:29.317Z,101662.05
2019-04-10T06:54:07.026Z,101660.45
2019-04-10T06:56:35.786Z,101662.03
2019-04-10T06:59:08.710Z,101665.70
2019-04-10T07:01:49.528Z,101665.50
2019-04-10T07:04:19.253Z,101666.59
2019-04-10T07:07:01.831Z,101663.29
2019-04-10T07:09:27.696Z,101664.19
2019-04-10T07:12:03.408Z,101660.30
2019-04-10T07:14:37.966Z,101669.94
2019-04-10T07:17:10.689Z,101669.62
2019-04-10T07:19:45.699Z,101674.00
2019-04-10T07:22:19.220Z,101672.37
2019-04-10T07:24:52.288Z,101675.17
2019-04-10T07:27:25.084Z,101681.62
2019-04-10T07:29:59.434Z,101688.53
2019-04-10T07:32:31.447Z,101682.22
2019-04-10T07:35:03.703Z,101693.94
2019-04-10T07:37:36.291Z,101693.76
2019-04-10T07:40:08.583Z,101688.26
2019-04-10T07:42:42.962Z,101697.28
2019-04-10T07:45:14.826Z,101688.30
2019-04-10T07:47:48.227Z,101692.46
2019-04-10T07:50:20.642Z,101696.88
2019-04-10T07:52:54.077Z,101695.25
2019-04-10T07:55:26.585Z,101690.42
2019-04-10T07:57:59.272Z,101701.02
2019-04-10T08:00:32.455Z,101698.05
2019-04-10T08:03:06.409Z,101697.13
2019-04-10T08:05:38.773Z,101698.05
2019-04-10T08:08:11.401Z,101704.17
2019-04-10T08:10:45.076Z,101703.79
2019-04-10T08:13:17.586Z,101701.56
2019-04-10T08:15:50.095Z,101707.66
2019-04-10T08:18:23.243Z,101712.09
2019-04-10T08:20:55.529Z,101706.23
2019-04-10T08:23:28.177Z,101705.14
2019-04-10T08:26:00.508Z,101709.42
2019-04-10T08:28:32.899Z,101708.09
2019-04-10T08:31:06.486Z,101711.24
2019-04-10T08:33:39.308Z,101713.94
2019-04-10T08:36:12.898Z,101709.23
2019-04-10T08:38:45.347Z,101713.31
2019-04-10T08:41:17.773Z,101719.02
2019-04-10T08:43:50.320Z,101721.67
2019-04-10T08:46:23.929Z,101717.08
2019-04-10T08:48:56.367Z,101720.88
2019-04-10T08:51:28.806Z,101718.02
2019-04-10T08:54:01.316Z,101720.14
2019-04-10T08:56:33.797Z,101725.58
2019-04-10T08:59:06.116Z,101725.34
2019-04-10T09:01:39.634Z,101722.41
2019-04-10T09:04:12.566Z,101725.33
2019-04-10T09:06:44.815Z,101731.02
2019-04-10T09:09:17.384Z,101735.08
2019-04-10T09:11:49.760Z,101730.59
2019-04-10T09:14:21.827Z,101734.34
2019-04-10T09:16:55.118Z,101734.19
2019-04-10T09:19:27.757Z,101728.95
2019-04-10T09:22:00.260Z,101724.95
2019-04-10T09:24:32.551Z,101732.13
2019-04-10T09:27:04.772Z,101735.17
2019-04-10T09:29:36.971Z,101736.16
2019-04-10T09:32:11.158Z,101735.97
2019-04-10T09:34:45.612Z,101728.17
2019-04-10T09:37:17.804Z,101735.17
2019-04-10T09:39:51.960Z,101735.27
2019-04-10T09:42:23.996Z,101730.20
2019-04-10T09:44:56.999Z,101724.25
2019-04-10T09:47:30.355Z,101725.19
2019-04-10T09:50:02.812Z,101724.81
2019-04-10T09:52:35.691Z,101725.85
2019-04-10T09:55:08.160Z,101726.25
2019-04-10T09:57:40.907Z,101733.23
2019-04-10T10:00:13.784Z,101728.08
2019-04-10T10:02:47.667Z,101732.45
2019-04-10T10:05:20.292Z,101735.09
2019-04-10T10:07:55.566Z,101734.66
2019-04-10T10:10:26.853Z,101730.05
2019-04-10T10:12:59.586Z,101733.34
2019-04-10T10:15:31.931Z,101737.34
2019-04-10T10:18:05.375Z,101743.17
2019-04-10T10:20:37.995Z,101748.52
2019-04-10T10:23:10.397Z,101736.58
2019-04-10T10:25:43.661Z,101736.89
2019-04-10T10:28:16.114Z,101739.35
2019-04-10T10:30:49.413Z,101733.81
2019-04-10T10:33:21.727Z,101735.23
2019-04-10T10:35:53.973Z,101733.44
2019-04-10T10:38:27.302Z,101731.11
2019-04-10T10:41:01.115Z,101733.86
2019-04-10T10:43:34.278Z,101737.66
2019-04-10T10:46:07.156Z,101727.82
2019-04-10T10:48:40.005Z,101732.92
2019-04-10T10:51:12.875Z,101727.80
2019-04-10T10:53:45.986Z,101726.37
2019-04-10T10:56:20.325Z,101725.30
2019-04-10T10:58:56.253Z,101730.77
2019-04-10T11:01:29.569Z,101734.51
2019-04-10T11:04:02.582Z,101728.37
2019-04-10T11:06:48.177Z,101730.03
2019-04-10T11:09:10.126Z,101731.83
2019-04-10T11:11:43.190Z,101727.52
2019-04-10T11:14:16.482Z,101724.91
2019-04-10T11:16:49.499Z,101726.94
2019-04-10T11:19:21.837Z,101720.56
2019-04-10T11:21:54.700Z,101723.87
2019-04-10T11:24:27.066Z,101716.11
2019-04-10T11:27:00.053Z,101722.56
2019-04-10T11:29:32.768Z,101728.17
2019-04-10T11:32:06.783Z,101724.21
2019-04-10T11:34:40.789Z,101730.12
2019-04-10T11:37:24.122Z,101725.99
2019-04-10T11:39:50.131Z,101723.46
2019-04-10T11:42:22.643Z,101729.95
2019-04-10T11:44:55.514Z,101727.72
2019-04-10T11:47:29.091Z,101733.94
2019-04-10T11:50:05.984Z,101730.99
2019-04-10T11:52:40.204Z,101731.45
2019-04-10T11:55:15.976Z,101730.38
2019-04-10T11:57:47.189Z,101746.58
2019-04-10T12:00:20.390Z,101744.61
2019-04-10T12:02:53.472Z,101732.08
2019-04-10T12:05:28.720Z,101742.02
2019-04-10T12:08:28.309Z,101743.61
2019-04-10T12:13:08.331Z,101755.83
2019-04-10T12:15:41.205Z,101752.20
2019-04-10T12:18:14.129Z,101747.40
2019-04-10T12:20:46.607Z,101755.19
2019-04-10T12:23:18.922Z,101752.15
2019-04-10T12:25:52.175Z,101755.98
2019-04-10T12:28:27.640Z,101760.23
2019-04-10T12:31:01.762Z,101747.08
2019-04-10T12:33:35.824Z,101765.52
2019-04-10T12:36:10.043Z,101759.73
2019-04-10T12:38:43.630Z,101767.73
2019-04-10T12:41:17.268Z,101761.97
2019-04-10T12:43:51.414Z,101763.37
2019-04-10T12:46:24.482Z,101762.39
2019-04-10T12:48:59.744Z,101760.56
2019-04-10T12:51:32.001Z,101772.60
2019-04-10T12:54:05.096Z,101775.94
2019-04-10T12:56:37.977Z,101771.31
2019-04-10T12:59:11.185Z,101774.30
2019-04-10T13:01:44.885Z,101765.86
2019-04-10T13:04:18.032Z,101764.11
2019-04-10T13:06:52.591Z,101768.79
2019-04-10T13:09:26.224Z,101768.41
2019-04-10T13:11:59.141Z,101778.45
2019-04-10T13:14:32.790Z,101779.62
2019-04-10T13:17:06.720Z,101778.44
2019-04-10T13:19:40.980Z,101777.31
2019-04-10T13:22:13.922Z,101778.83
2019-04-10T13:24:47.794Z,101782.97
2019-04-10T13:27:20.966Z,101777.33
2019-04-10T13:29:54.387Z,101770.22
2019-04-10T13:32:27.680Z,101775.30
2019-04-10T13:35:00.564Z,101771.06
2019-04-10T13:37:33.729Z,101770.58
2019-04-10T13:40:07.646Z,101767.17
2019-04-10T13:42:41.178Z,101777.36
2019-04-10T13:45:15.170Z,101772.80
2019-04-10T13:47:49.611Z,101771.86
2019-04-10T13:50:22.688Z,101776.77
2019-04-10T13:52:55.562Z,101761.25
2019-04-10T13:55:28.531Z,101765.47
2019-04-10T13:58:01.411Z,101766.77
2019-04-10T14:00:34.209Z,101769.42
2019-04-10T14:03:07.035Z,101773.48
2019-04-10T14:05:41.094Z,101769.36
2019-04-10T14:08:14.591Z,101765.72
2019-04-10T14:10:48.748Z,101774.61
2019-04-10T14:13:22.025Z,101777.41
2019-04-10T14:15:55.984Z,101777.09
2019-04-10T14:18:28.962Z,101779.55
2019-04-10T14:21:07.139Z,101779.22
2019-04-10T14:23:37.404Z,101775.16
2019-04-10T14:26:10.315Z,101776.44
2019-04-10T14:28:43.230Z,101785.66
2019-04-10T14:31:16.025Z,101785.56
2019-04-10T14:33:49.102Z,101782.69
2019-04-10T14:36:22.434Z,101786.61
2019-04-10T14:39:07.832Z,101794.84
2019-04-10T14:41:30.683Z,101780.09
2019-04-10T14:44:04.110Z,101787.80
2019-04-10T14:46:38.072Z,101788.34
2019-04-10T14:49:11.192Z,101785.35
2019-04-10T14:51:46.395Z,101797.16
2019-04-10T14:54:19.668Z,101787.23
2019-04-10T14:56:53.089Z,101792.44
2019-04-10T14:59:26.227Z,101802.41
2019-04-10T15:02:00.037Z,101797.44
2019-04-10T15:04:33.903Z,101800.41
2019-04-10T15:07:06.716Z,101803.86
2019-04-10T15:09:39.671Z,101789.67
2019-04-10T15:12:12.626Z,101795.52
2019-04-10T15:14:45.886Z,101789.48
2019-04-10T15:17:18.929Z,101795.92
2019-04-10T15:19:52.554Z,101786.15
2019-04-10T15:22:25.521Z,101793.47
2019-04-10T15:24:58.065Z,101792.71
2019-04-10T15:27:30.526Z,101788.11
2019-04-10T15:30:04.325Z,101785.30
2019-04-10T15:32:39.994Z,101786.48
2019-04-10T15:35:15.975Z,101786.00
2019-04-10T15:37:49.276Z,101786.98
2019-04-10T15:40:25.603Z,101777.34
2019-04-10T15:42:56.608Z,101796.61
2019-04-10T15:45:30.219Z,101797.45
2019-04-10T15:48:03.226Z,101798.12
2019-04-10T15:50:35.756Z,101802.80
2019-04-10T15:53:09.766Z,101793.93
2019-04-10T15:55:42.547Z,101817.62
2019-04-10T15:58:19.724Z,101812.11
2019-04-10T16:00:59.467Z,101809.34
2019-04-10T16:03:36.767Z,101809.47
2019-04-10T16:06:11.145Z,101814.41
2019-04-10T16:08:44.888Z,101809.22
2019-04-10T16:11:21.594Z,101813.55
2019-04-10T16:13:54.969Z,101811.95
2019-04-10T16:16:27.988Z,101817.16
2019-04-10T16:19:02.249Z,101818.43
2019-04-10T16:21:36.021Z,101825.27
2019-04-10T16:24:09.106Z,101820.50
2019-04-10T16:26:43.219Z,101819.30
2019-04-10T16:29:16.427Z,101827.08
2019-04-10T16:31:50.275Z,101824.30
2019-04-10T16:34:24.871Z,101831.16
2019-04-10T16:36:57.798Z,101836.34
2019-04-10T16:39:30.964Z,101837.98
2019-04-10T16:42:03.921Z,101826.92
2019-04-10T16:44:37.293Z,101833.23
2019-04-10T16:47:10.271Z,101832.64
2019-04-10T16:49:43.205Z,101841.57
2019-04-10T16:52:16.837Z,101834.27
2019-04-10T16:54:49.748Z,101844.09
2019-04-10T16:57:22.660Z,101842.97
2019-04-10T16:59:56.045Z,101853.68
2019-04-10T17:02:29.048Z,101847.98
2019-04-10T17:05:01.689Z,101845.77
2019-04-10T17:07:35.209Z,101839.41
2019-04-10T17:10:15.969Z,101841.19
2019-04-10T17:12:42.216Z,101846.16
2019-04-10T17:15:15.584Z,101844.02
2019-04-10T17:17:48.142Z,101848.14
2019-04-10T17:20:20.514Z,101853.48
2019-04-10T17:22:54.126Z,101851.88
2019-04-10T17:25:26.589Z,101852.28
2019-04-10T17:27:59.647Z,101854.78
2019-04-10T17:30:33.926Z,101860.47
2019-04-10T17:33:08.963Z,101870.34
2019-04-10T17:35:41.401Z,101875.55
2019-04-10T17:38:14.206Z,101876.38
2019-04-10T17:40:51.335Z,101874.52
2019-04-10T17:43:21.055Z,101889.35
2019-04-10T17:45:53.537Z,101886.95
2019-04-10T17:48:28.055Z,101887.74
2019-04-10T17:51:01.619Z,101886.82
2019-04-10T17:53:35.624Z,101896.37
2019-04-10T17:56:08.454Z,101904.90
2019-04-10T17:58:41.444Z,101903.47
2019-04-10T18:01:14.123Z,101914.64
2019-04-10T18:03:53.179Z,101910.05
2019-04-10T18:06:21.364Z,101917.14
2019-04-10T18:08:54.261Z,101920.98
2019-04-10T18:11:27.934Z,101917.64
2019-04-10T18:14:11.052Z,101919.45
2019-04-10T18:17:05.001Z,101926.18
2019-04-10T18:19:44.406Z,101927.86
2019-04-10T18:22:28.875Z,101927.18
2019-04-10T18:25:07.626Z,101938.68
2019-04-10T18:27:47.086Z,101945.88
2019-04-10T18:30:23.832Z,101942.95
2019-04-10T18:33:00.215Z,101948.11
2019-04-10T18:35:35.931Z,101955.80
2019-04-10T18:38:11.171Z,101963.64
2019-04-10T18:40:53.218Z,101967.98
2019-04-10T18:43:20.308Z,101973.63
2019-04-10T18:46:03.244Z,101973.69
2019-04-10T18:48:28.438Z,101977.64
2019-04-10T18:51:01.469Z,101987.56
2019-04-10T18:53:35.143Z,101988.83
2019-04-10T18:56:07.527Z,101991.14
2019-04-10T18:58:40.189Z,101986.67
2019-04-10T19:01:14.405Z,101996.95
2019-04-10T19:03:54.675Z,102001.16
2019-04-10T19:06:20.623Z,101997.70
2019-04-10T19:09:05.018Z,102004.91
2019-04-10T19:11:33.284Z,102009.44
2019-04-10T19:14:01.444Z,102017.00
2019-04-10T19:16:33.789Z,102015.95
2019-04-10T19:19:06.461Z,102018.88
2019-04-10T19:21:39.830Z,102022.59
2019-04-10T19:24:12.312Z,102033.95
2019-04-10T19:26:45.454Z,102039.73
2019-04-10T19:29:18.129Z,102042.54
2019-04-10T19:31:50.394Z,102038.67
2019-04-10T19:34:23.465Z,102039.08
2019-04-10T19:36:56.375Z,102044.54
2019-04-10T19:39:29.982Z,102043.17
2019-04-10T19:42:02.838Z,102047.45
2019-04-10T19:44:35.299Z,102052.62
2019-04-10T19:47:08.239Z,102055.53
2019-04-10T19:49:41.354Z,102057.11
2019-04-10T19:52:14.132Z,102065.59
2019-04-10T19:54:47.236Z,102065.59
2019-04-10T19:57:19.708Z,102070.47
2019-04-10T19:59:52.368Z,102076.36
2019-04-10T20:02:24.938Z,102076.16
2019-04-10T20:04:57.341Z,102079.34
2019-04-10T20:07:29.622Z,102075.27
2019-04-10T20:10:02.635Z,102078.95
2019-04-10T20:12:37.530Z,102081.31
2019-04-10T20:15:10.088Z,102084.95
2019-04-10T20:17:42.725Z,102083.31
2019-04-10T20:20:15.193Z,102081.66
2019-04-10T20:22:48.028Z,102087.15
2019-04-10T20:25:20.555Z,102087.85
2019-04-10T20:27:52.798Z,102097.30
2019-04-10T20:30:25.825Z,102090.59
2019-04-10T20:32:58.631Z,102094.70
2019-04-10T20:35:32.137Z,102097.57
2019-04-10T20:38:04.381Z,102100.27
2019-04-10T20:40:36.617Z,102100.14
2019-04-10T20:43:09.076Z,102102.41
2019-04-10T20:45:41.986Z,102103.89
2019-04-10T20:48:14.364Z,102108.27
2019-04-10T20:50:46.646Z,102111.25
2019-04-10T20:53:19.982Z,102116.55
2019-04-10T20:55:52.560Z,102115.83
2019-04-10T20:58:25.365Z,102115.31
2019-04-10T21:00:58.880Z,102119.08
2019-04-10T21:03:31.779Z,102123.57
2019-04-10T21:06:04.760Z,102128.93
2019-04-10T21:08:38.294Z,102122.64
2019-04-10T21:11:11.724Z,102141.14
2019-04-10T21:13:44.656Z,102139.64
2019-04-10T21:16:17.724Z,102141.78
2019-04-10T21:18:50.372Z,102142.59
2019-04-10T21:21:22.679Z,102138.72
2019-04-10T21:23:55.018Z,102148.34
2019-04-10T21:26:28.276Z,102141.66
2019-04-10T21:29:00.876Z,102143.41
2019-04-10T21:31:34.223Z,102144.09
2019-04-10T21:34:07.661Z,102147.38
2019-04-10T21:36:40.004Z,102147.03
2019-04-10T21:39:12.668Z,102151.87
2019-04-10T21:41:46.719Z,102157.52
2019-04-10T21:44:20.312Z,102155.71
2019-04-10T21:46:53.050Z,102158.08
2019-04-10T21:49:26.166Z,102154.42
2019-04-10T21:51:59.892Z,102160.97
2019-04-10T21:54:32.306Z,102162.82
2019-04-10T21:57:05.423Z,102158.61
2019-04-10T21:59:38.900Z,102157.78
2019-04-10T22:02:11.289Z,102159.86
2019-04-10T22:04:43.677Z,102164.80
2019-04-10T22:07:18.165Z,102171.05
2019-04-10T22:09:50.841Z,102161.48
2019-04-10T22:12:31.157Z,102165.63
2019-04-10T22:15:00.286Z,102164.63
2019-04-10T22:17:34.683Z,102162.61
2019-04-10T22:20:07.908Z,102169.36
2019-04-10T22:22:39.920Z,102168.33
2019-04-10T22:25:13.110Z,102166.95
2019-04-10T22:27:45.384Z,102167.38
2019-04-10T22:30:18.953Z,102175.20
2019-04-10T22:32:51.354Z,102168.52
2019-04-10T22:35:23.715Z,102170.81
2019-04-10T22:37:56.725Z,102178.85
2019-04-10T22:40:29.195Z,102175.63
2019-04-10T22:43:01.613Z,102176.86
2019-04-10T22:45:33.903Z,102177.64
2019-04-10T22:48:06.299Z,102181.51
2019-04-10T22:50:38.691Z,102179.00
2019-04-10T22:53:10.952Z,102180.55
2019-04-10T22:55:44.352Z,102179.03
2019-04-10T22:58:17.148Z,102177.03
2019-04-10T23:00:50.927Z,102176.30
2019-04-10T23:03:25.738Z,102184.59
2019-04-10T23:05:58.618Z,102177.78
2019-04-10T23:08:31.653Z,102180.27
2019-04-10T23:11:03.953Z,102178.71
2019-04-10T23:13:36.309Z,102181.58
2019-04-10T23:16:08.620Z,102185.22
2019-04-10T23:18:42.967Z,102182.42
2019-04-10T23:21:18.551Z,102181.12
2019-04-10T23:23:51.591Z,102192.73
2019-04-10T23:26:26.282Z,102190.41
2019-04-10T23:28:58.542Z,102197.16
2019-04-10T23:31:31.970Z,102191.48
2019-04-10T23:34:04.310Z,102192.02
2019-04-10T23:36:36.524Z,102192.31
2019-04-10T23:39:08.785Z,102193.75
2019-04-10T23:41:42.099Z,102194.14
2019-04-10T23:44:14.367Z,102193.14
2019-04-10T23:46:47.457Z,102203.33
2019-04-10T23:49:19.828Z,102199.09
2019-04-10T23:51:52.047Z,102200.30
2019-04-10T23:54:24.959Z,102202.27
2019-04-10T23:56:57.210Z,102198.39
2019-04-10T23:59:29.465Z,102202.94
